createdAt,value
2022-10-13T00:01:22.405Z,77.83
2022-10-13T00:03:51.441Z,78.71
2022-10-13T00:06:25.364Z,77.78
2022-10-13T00:08:54.427Z,77.48
2022-10-13T00:11:25.688Z,78.30
2022-10-13T00:13:57.246Z,78.61
2022-10-13T00:16:26.750Z,78.83
2022-10-13T00:18:55.092Z,78.54
2022-10-13T00:21:26.991Z,78.67
2022-10-13T00:23:55.689Z,78.97
2022-10-13T00:26:26.013Z,79.32
2022-10-13T00:28:55.603Z,79.20
2022-10-13T00:31:27.646Z,78.93
2022-10-13T00:33:57.162Z,78.95
2022-10-13T00:36:28.817Z,78.82
2022-10-13T00:38:57.338Z,78.62
2022-10-13T00:41:25.407Z,78.78
2022-10-13T00:44:02.518Z,78.75
2022-10-13T00:46:33.515Z,78.54
2022-10-13T00:49:08.038Z,79.09
2022-10-13T00:51:44.469Z,78.81
2022-10-13T00:54:20.572Z,79.05
2022-10-13T00:56:51.387Z,79.76
2022-10-13T00:59:27.345Z,79.48
2022-10-13T01:01:59.298Z,80.12
2022-10-13T01:04:33.228Z,80.89
2022-10-13T01:07:04.034Z,80.82
2022-10-13T01:09:37.582Z,81.37
2022-10-13T01:12:21.925Z,80.70
2022-10-13T01:15:03.013Z,80.84
2022-10-13T01:17:41.345Z,80.50
2022-10-13T01:20:42.698Z,81.70
2022-10-13T01:23:42.131Z,82.08
2022-10-13T01:26:42.673Z,83.30
2022-10-13T01:29:34.396Z,83.02
2022-10-13T01:32:14.929Z,82.97
2022-10-13T01:34:55.658Z,83.31
2022-10-13T01:37:34.777Z,83.30
2022-10-13T01:40:10.299Z,82.74
2022-10-13T01:42:46.961Z,83.13
2022-10-13T01:45:22.218Z,83.67
2022-10-13T01:47:52.918Z,83.87
2022-10-13T01:50:20.990Z,84.55
2022-10-13T01:52:51.924Z,84.91
2022-10-13T01:55:20.049Z,84.97
2022-10-13T01:57:47.935Z,85.30
2022-10-13T02:00:21.105Z,85.03
2022-10-13T02:03:09.056Z,85.26
2022-10-13T02:05:49.571Z,85.95
2022-10-13T02:08:28.372Z,85.44
2022-10-13T02:11:12.457Z,84.65
2022-10-13T02:13:46.277Z,85.12
2022-10-13T02:16:23.626Z,84.17
2022-10-13T02:18:53.398Z,83.60
2022-10-13T02:21:21.478Z,84.18
2022-10-13T02:23:50.130Z,84.59
2022-10-13T02:26:21.925Z,83.59
2022-10-13T02:28:58.537Z,83.11
2022-10-13T02:31:26.484Z,83.67
2022-10-13T02:33:55.550Z,84.34
2022-10-13T02:36:23.982Z,83.91
2022-10-13T02:38:51.876Z,84.21
2022-10-13T02:41:19.804Z,84.05
2022-10-13T02:43:47.652Z,83.81
2022-10-13T02:46:15.571Z,83.79
2022-10-13T02:48:44.677Z,82.95
2022-10-13T02:51:13.757Z,83.65
2022-10-13T02:53:41.502Z,83.10
2022-10-13T02:56:09.442Z,83.22
2022-10-13T02:58:38.099Z,82.74
2022-10-13T03:01:07.175Z,82.39
2022-10-13T03:03:36.184Z,82.21
2022-10-13T03:06:04.361Z,82.97
2022-10-13T03:08:35.376Z,83.25
2022-10-13T03:11:03.289Z,83.79
2022-10-13T03:13:31.063Z,83.81
2022-10-13T03:16:06.853Z,82.94
2022-10-13T03:18:35.212Z,83.01
2022-10-13T03:21:06.714Z,82.77
2022-10-13T03:23:35.838Z,82.70
2022-10-13T03:26:04.497Z,82.00
2022-10-13T03:28:32.391Z,81.75
2022-10-13T03:31:02.134Z,82.13
2022-10-13T03:33:29.957Z,81.94
2022-10-13T03:36:02.308Z,82.32
2022-10-13T03:38:32.259Z,81.75
2022-10-13T03:41:07.209Z,81.44
2022-10-13T03:43:35.769Z,80.91
2022-10-13T03:46:05.927Z,80.34
2022-10-13T03:48:36.255Z,80.88
2022-10-13T03:51:06.428Z,80.30
2022-10-13T03:53:34.989Z,80.75
2022-10-13T03:56:06.538Z,81.13
2022-10-13T03:58:36.457Z,80.46
2022-10-13T04:01:05.892Z,80.47
2022-10-13T04:03:34.951Z,80.33
2022-10-13T04:06:05.549Z,80.35
2022-10-13T04:08:34.436Z,80.20
2022-10-13T04:11:06.492Z,79.88
2022-10-13T04:13:34.713Z,78.49
2022-10-13T04:16:03.584Z,79.02
2022-10-13T04:18:32.093Z,79.09
2022-10-13T04:21:00.299Z,80.49
2022-10-13T04:23:29.272Z,79.47
2022-10-13T04:25:57.670Z,79.25
2022-10-13T04:28:26.927Z,79.73
2022-10-13T04:30:54.741Z,80.04
2022-10-13T04:33:22.516Z,79.98
2022-10-13T04:35:50.457Z,79.70
2022-10-13T04:38:18.293Z,80.23
2022-10-13T04:40:46.037Z,79.93
2022-10-13T04:43:15.753Z,80.01
2022-10-13T04:45:44.858Z,80.16
2022-10-13T04:48:12.850Z,79.97
2022-10-13T04:50:40.867Z,79.77
2022-10-13T04:53:08.655Z,79.59
2022-10-13T04:55:37.148Z,79.46
2022-10-13T04:58:04.979Z,79.91
2022-10-13T05:00:32.857Z,80.01
2022-10-13T05:03:02.033Z,79.99
2022-10-13T05:05:29.799Z,80.25
2022-10-13T05:07:57.537Z,80.87
2022-10-13T05:10:25.429Z,80.14
2022-10-13T05:12:53.836Z,79.44
2022-10-13T05:15:21.575Z,78.53
2022-10-13T05:17:49.521Z,79.49
2022-10-13T05:20:18.621Z,79.70
2022-10-13T05:22:46.407Z,80.50
2022-10-13T05:25:14.273Z,80.30
2022-10-13T05:27:42.142Z,80.76
2022-10-13T05:30:12.138Z,80.15
2022-10-13T05:32:40.265Z,80.82
2022-10-13T05:35:09.849Z,80.71
2022-10-13T05:37:42.650Z,79.56
2022-10-13T05:40:11.724Z,80.17
2022-10-13T05:42:39.604Z,79.17
2022-10-13T05:45:11.088Z,78.58
2022-10-13T05:47:39.012Z,78.33
2022-10-13T05:50:08.426Z,79.04
2022-10-13T05:52:37.851Z,80.04
2022-10-13T05:55:11.142Z,81.31
2022-10-13T05:57:44.334Z,80.35
2022-10-13T06:00:15.920Z,80.87
2022-10-13T06:02:49.543Z,81.42
2022-10-13T06:05:21.797Z,80.54
2022-10-13T06:07:55.889Z,79.64
2022-10-13T06:10:26.164Z,80.34
2022-10-13T06:12:54.031Z,80.75
2022-10-13T06:15:27.812Z,83.07
2022-10-13T06:17:57.399Z,82.56
2022-10-13T06:20:27.401Z,82.61
2022-10-13T06:22:55.254Z,80.92
2022-10-13T06:25:23.216Z,81.31
2022-10-13T06:27:52.435Z,81.18
2022-10-13T06:30:20.307Z,81.54
2022-10-13T06:32:48.185Z,80.82
2022-10-13T06:35:16.123Z,80.00
2022-10-13T06:37:46.318Z,79.77
2022-10-13T06:40:14.775Z,80.87
2022-10-13T06:42:42.732Z,80.36
2022-10-13T06:45:12.335Z,80.11
2022-10-13T06:47:41.334Z,79.88
2022-10-13T06:50:10.024Z,79.89
2022-10-13T06:52:38.206Z,80.31
2022-10-13T06:55:07.017Z,79.35
2022-10-13T06:57:36.022Z,79.44
2022-10-13T07:00:08.187Z,78.98
2022-10-13T07:02:37.675Z,77.92
2022-10-13T07:05:06.243Z,77.62
2022-10-13T07:07:34.057Z,77.80
2022-10-13T07:10:02.052Z,76.94
2022-10-13T07:12:29.836Z,76.45
2022-10-13T07:14:57.714Z,76.44
2022-10-13T07:17:25.642Z,75.71
2022-10-13T07:19:57.828Z,76.28
2022-10-13T07:22:27.016Z,76.55
2022-10-13T15:53:21.656Z,86.18
2022-10-13T15:55:50.991Z,86.45
2022-10-13T15:58:18.805Z,86.98
2022-10-13T16:00:46.680Z,87.54
2022-10-13T16:03:17.919Z,87.90
2022-10-13T16:05:46.943Z,87.41
2022-10-13T16:08:14.837Z,88.57
2022-10-13T16:10:43.556Z,88.29
2022-10-13T16:13:15.366Z,88.74
2022-10-13T16:15:43.094Z,88.62
2022-10-13T16:18:10.817Z,89.04
2022-10-13T16:20:40.626Z,89.91
2022-10-13T16:23:08.329Z,91.31
2022-10-13T16:25:39.375Z,90.83
2022-10-13T16:28:07.150Z,90.57
2022-10-13T16:30:37.437Z,90.23
2022-10-13T16:33:05.308Z,90.16
2022-10-13T16:35:34.229Z,89.44
2022-10-13T16:38:02.078Z,88.80
2022-10-13T16:40:34.408Z,89.33
2022-10-13T16:43:02.082Z,89.00
2022-10-13T16:45:47.892Z,89.33
2022-10-13T16:48:18.854Z,89.97
2022-10-13T16:50:46.788Z,89.67
2022-10-13T16:53:14.546Z,89.36
2022-10-13T16:55:42.477Z,88.92
2022-10-13T16:58:10.635Z,88.20
2022-10-13T17:00:39.356Z,89.75
2022-10-13T17:03:07.766Z,89.25
2022-10-13T17:05:37.127Z,89.71
2022-10-13T17:08:05.262Z,91.37
2022-10-13T17:10:33.890Z,92.11
2022-10-13T17:13:01.991Z,91.71
2022-10-13T17:15:32.963Z,91.43
2022-10-13T17:18:00.649Z,91.27
2022-10-13T17:20:28.342Z,91.48
2022-10-13T17:22:57.428Z,90.98
2022-10-13T17:25:25.197Z,91.44
2022-10-13T17:27:53.075Z,91.86
2022-10-13T17:30:21.169Z,91.51
2022-10-13T17:32:49.768Z,91.91
2022-10-13T17:35:18.080Z,91.54
2022-10-13T17:37:49.067Z,93.39
2022-10-13T17:40:20.317Z,92.69
2022-10-13T17:42:48.097Z,93.29
2022-10-13T17:45:16.406Z,93.06
2022-10-13T17:47:48.393Z,92.76
2022-10-13T17:50:16.826Z,92.20
2022-10-13T17:52:44.659Z,92.77
2022-10-13T17:55:12.502Z,92.55
2022-10-13T17:57:41.548Z,91.71
2022-10-13T18:00:11.212Z,91.84
2022-10-13T18:02:42.844Z,91.26
2022-10-13T18:05:10.964Z,90.72
2022-10-13T18:07:38.857Z,91.24
2022-10-13T18:10:08.004Z,91.31
2022-10-13T18:12:35.736Z,90.72
2022-10-13T18:15:06.572Z,90.86
2022-10-13T18:17:34.330Z,91.27
2022-10-13T18:20:02.049Z,91.37
2022-10-13T18:22:31.174Z,92.06
2022-10-13T18:24:59.809Z,91.72
2022-10-13T18:27:27.507Z,91.30
2022-10-13T18:29:55.261Z,91.28
2022-10-13T18:32:25.530Z,90.11
2022-10-13T18:34:56.179Z,91.12
2022-10-13T18:37:24.057Z,91.18
2022-10-13T18:39:51.810Z,91.66
2022-10-13T18:42:19.580Z,91.15
2022-10-13T18:44:47.346Z,91.10
2022-10-13T18:47:15.167Z,92.12
2022-10-13T18:49:44.297Z,91.67
2022-10-13T18:52:12.816Z,90.88
2022-10-13T18:54:40.524Z,90.86
2022-10-13T18:57:08.247Z,90.14
2022-10-13T18:59:38.582Z,89.76
2022-10-13T19:02:06.877Z,90.47
2022-10-13T19:04:35.991Z,90.02
2022-10-13T19:07:05.060Z,90.58
2022-10-13T19:09:35.151Z,90.38
2022-10-13T19:12:03.024Z,91.71
2022-10-13T19:14:30.993Z,91.02
2022-10-13T19:17:01.943Z,90.28
2022-10-13T19:19:30.600Z,91.68
2022-10-13T19:21:58.565Z,91.41
2022-10-13T19:24:27.980Z,90.97
2022-10-13T19:26:56.145Z,90.95
2022-10-13T19:29:23.920Z,91.31
2022-10-13T19:31:51.698Z,91.34
2022-10-13T19:34:19.420Z,91.65
2022-10-13T19:36:47.429Z,91.20
2022-10-13T19:39:20.520Z,91.14
2022-10-13T19:41:52.583Z,91.82
2022-10-13T19:44:22.439Z,90.83
2022-10-13T19:46:52.221Z,91.59
2022-10-13T19:49:26.244Z,91.85
2022-10-13T19:51:55.927Z,91.32
2022-10-13T19:54:25.755Z,90.71
2022-10-13T19:56:57.356Z,91.30
2022-10-13T19:59:25.176Z,91.63
2022-10-13T20:01:52.908Z,91.34
2022-10-13T20:04:20.727Z,92.18
2022-10-13T20:06:49.893Z,91.65
2022-10-13T20:09:19.491Z,92.11
2022-10-13T20:11:50.714Z,91.04
2022-10-13T20:14:19.945Z,92.34
2022-10-13T20:16:47.920Z,91.80
2022-10-13T20:19:19.253Z,91.67
2022-10-13T20:21:48.114Z,91.28
2022-10-13T20:24:15.948Z,91.88
2022-10-13T20:26:43.773Z,91.52
2022-10-13T20:29:11.651Z,91.62
2022-10-13T20:31:41.517Z,91.21
2022-10-13T20:34:10.888Z,91.25
2022-10-13T20:36:39.417Z,90.95
2022-10-13T20:39:08.862Z,90.10
2022-10-13T20:41:36.740Z,90.43
2022-10-13T20:44:04.716Z,90.97
2022-10-13T20:46:34.544Z,90.87
2022-10-13T20:49:12.664Z,90.41
2022-10-13T20:51:42.575Z,90.80
2022-10-13T20:54:12.649Z,90.38
2022-10-13T20:56:41.206Z,89.36
2022-10-13T20:59:11.586Z,90.07
2022-10-13T21:01:39.364Z,90.14
2022-10-13T21:04:08.657Z,90.01
2022-10-13T21:06:36.902Z,90.47
2022-10-13T21:09:07.177Z,90.07
2022-10-13T21:11:36.208Z,89.84
2022-10-13T21:14:06.690Z,90.13
2022-10-13T21:16:35.813Z,89.83
2022-10-13T21:19:08.572Z,89.44
2022-10-13T21:21:36.701Z,90.73
2022-10-13T21:24:07.290Z,90.56
2022-10-13T21:26:36.832Z,90.08
2022-10-13T21:29:05.196Z,90.36
2022-10-13T21:31:35.351Z,90.29
2022-10-13T21:34:03.202Z,89.41
2022-10-13T21:36:33.523Z,89.86
2022-10-13T21:39:04.403Z,90.00
2022-10-13T21:41:33.988Z,90.18
2022-10-13T21:44:02.023Z,90.15
2022-10-13T21:46:34.330Z,90.41
2022-10-13T21:49:05.061Z,90.94
2022-10-13T21:51:37.690Z,90.36
2022-10-13T21:54:10.185Z,90.36
2022-10-13T21:56:39.992Z,90.37
2022-10-13T21:59:09.982Z,91.07
2022-10-13T22:01:37.711Z,90.83
2022-10-13T22:04:12.940Z,91.79
2022-10-13T22:06:42.590Z,92.18
2022-10-13T22:09:10.989Z,91.33
2022-10-13T22:11:39.828Z,91.73
2022-10-13T22:14:13.986Z,91.97
2022-10-13T22:16:44.631Z,92.65
2022-10-13T22:19:13.915Z,91.89
2022-10-13T22:21:45.708Z,92.58
2022-10-13T22:24:17.180Z,91.91
2022-10-13T22:26:47.504Z,90.32
2022-10-13T22:29:19.454Z,90.51
2022-10-13T22:31:49.090Z,89.37
2022-10-13T22:34:17.720Z,89.94
2022-10-13T22:36:46.828Z,89.60
2022-10-13T22:39:15.594Z,90.03
2022-10-13T22:41:43.782Z,90.07
2022-10-13T22:44:12.591Z,90.48
2022-10-13T22:46:40.726Z,89.88
2022-10-13T22:49:13.287Z,90.18
2022-10-13T22:51:41.012Z,89.66
2022-10-13T22:54:10.246Z,89.18
2022-10-13T22:56:39.929Z,88.41
2022-10-13T22:59:09.249Z,84.48
2022-10-13T23:01:37.074Z,84.51
2022-10-13T23:04:05.551Z,85.22
2022-10-13T23:06:35.876Z,83.63
2022-10-13T23:09:11.669Z,83.71
2022-10-13T23:11:40.369Z,83.69
2022-10-13T23:14:09.083Z,83.70
2022-10-13T23:16:36.941Z,84.49
2022-10-13T23:19:04.888Z,82.79
2022-10-13T23:21:32.645Z,83.45
2022-10-13T23:24:03.513Z,84.99
2022-10-13T23:26:33.902Z,85.71
2022-10-13T23:29:02.052Z,84.36
2022-10-13T23:31:29.915Z,85.53
2022-10-13T23:33:58.764Z,84.85
2022-10-13T23:36:29.221Z,84.51
2022-10-13T23:39:00.221Z,85.78
2022-10-13T23:41:29.083Z,84.77
2022-10-13T23:43:58.461Z,84.37
2022-10-13T23:46:26.305Z,85.52
2022-10-13T23:48:54.734Z,84.78
2022-10-13T23:51:25.088Z,84.72
2022-10-13T23:53:54.813Z,83.54
2022-10-13T23:56:23.439Z,83.49
2022-10-13T23:58:51.677Z,82.72
